TimeCDT,TemperatureF,Dew PointF,Humidity,Sea Level PressureIn,VisibilityMPH,Wind Direction,Wind SpeedMPH,Gust SpeedMPH,PrecipitationIn,Events,Conditions,WindDirDegrees,DateUTC
12:15 AM,74.1,70.0,87,29.85,10.0,West,6.9,-,N/A,,Clear,280,2013-07-20 05:15:00
12:35 AM,74.5,70.0,86,29.86,10.0,West,5.8,-,N/A,,Clear,280,2013-07-20 05:35:00
12:55 AM,74.3,70.0,86,29.86,10.0,West,5.8,-,N/A,,Mostly Cloudy,280,2013-07-20 05:55:00
1:15 AM,73.0,69.3,88,29.86,10.0,West,5.8,-,N/A,,Scattered Clouds,280,2013-07-20 06:15:00
1:35 AM,72.7,69.1,88,29.86,10.0,WNW,5.8,-,N/A,,Clear,290,2013-07-20 06:35:00
1:55 AM,72.1,68.5,88,29.85,10.0,NW,5.8,-,N/A,,Clear,310,2013-07-20 06:55:00
2:15 AM,72.0,68.0,87,29.85,10.0,NW,5.8,-,N/A,,Clear,310,2013-07-20 07:15:00
2:35 AM,71.2,67.6,88,29.85,10.0,WNW,5.8,-,N/A,,Clear,300,2013-07-20 07:35:00
2:55 AM,70.7,67.1,88,29.85,10.0,WNW,5.8,-,N/A,,Clear,300,2013-07-20 07:55:00
3:15 AM,70.2,66.7,89,29.85,10.0,WNW,4.6,-,N/A,,Clear,300,2013-07-20 08:15:00
3:35 AM,69.3,66.2,90,29.85,10.0,NW,4.6,-,N/A,,Clear,310,2013-07-20 08:35:00
3:55 AM,68.9,65.5,89,29.86,10.0,NW,5.8,-,N/A,,Clear,310,2013-07-20 08:55:00
4:15 AM,69.3,65.3,87,29.86,10.0,NW,5.8,-,N/A,,Clear,320,2013-07-20 09:15:00
4:35 AM,69.3,65.3,87,29.86,10.0,NW,4.6,-,N/A,,Clear,310,2013-07-20 09:35:00
4:55 AM,68.9,64.9,87,29.87,10.0,NW,5.8,-,N/A,,Clear,320,2013-07-20 09:55:00
5:15 AM,68.0,64.4,88,29.87,10.0,NW,4.6,-,N/A,,Clear,320,2013-07-20 10:15:00
5:35 AM,67.8,63.9,87,29.87,10.0,NW,3.5,-,N/A,,Clear,310,2013-07-20 10:35:00
5:55 AM,66.6,63.3,89,29.88,10.0,NW,4.6,-,N/A,,Clear,320,2013-07-20 10:55:00
6:15 AM,67.6,63.9,88,29.88,10.0,NNW,6.9,-,N/A,,Clear,330,2013-07-20 11:15:00
6:35 AM,68.0,64.0,87,29.88,10.0,NNW,6.9,-,N/A,,Clear,330,2013-07-20 11:35:00
6:55 AM,69.3,64.8,86,29.89,10.0,NNW,6.9,-,N/A,,Clear,340,2013-07-20 11:55:00
7:15 AM,69.8,65.1,85,29.89,10.0,North,3.5,-,N/A,,Clear,350,2013-07-20 12:15:00
7:35 AM,71.2,65.7,82,29.89,10.0,NNW,5.8,-,N/A,,Clear,340,2013-07-20 12:35:00
7:55 AM,73.0,66.4,80,29.90,10.0,NNW,5.8,-,N/A,,Clear,340,2013-07-20 12:55:00
8:15 AM,74.1,66.4,77,29.91,10.0,North,3.5,-,N/A,,Clear,350,2013-07-20 13:15:00
8:35 AM,75.6,67.3,75,29.91,10.0,North,5.8,-,N/A,,Clear,360,2013-07-20 13:35:00
8:55 AM,76.3,66.4,71,29.91,10.0,North,8.1,-,N/A,,Clear,360,2013-07-20 13:55:00
9:15 AM,77.7,66.6,68,29.92,10.0,North,8.1,-,N/A,,Clear,360,2013-07-20 14:15:00
9:35 AM,78.3,66.0,66,29.92,10.0,North,6.9,-,N/A,,Clear,10,2013-07-20 14:35:00
9:55 AM,79.0,64.9,62,29.93,10.0,North,5.8,-,N/A,,Clear,360,2013-07-20 14:55:00
10:15 AM,80.4,64.9,59,29.93,10.0,Calm,Calm,-,N/A,,Clear,0,2013-07-20 15:15:00
10:35 AM,80.8,64.0,57,29.94,10.0,North,10.4,17.3,N/A,,Clear,350,2013-07-20 15:35:00
10:55 AM,81.3,64.2,56,29.94,10.0,Calm,Calm,-,N/A,,Clear,0,2013-07-20 15:55:00
11:15 AM,81.9,62.2,51,29.94,10.0,Calm,Calm,-,N/A,,Clear,0,2013-07-20 16:15:00
11:35 AM,81.7,60.3,48,29.94,10.0,North,3.5,-,N/A,,Clear,360,2013-07-20 16:35:00
11:55 AM,82.9,58.8,44,29.94,10.0,North,5.8,-,N/A,,Clear,360,2013-07-20 16:55:00
12:15 PM,82.8,60.6,47,29.95,10.0,NNW,6.9,-,N/A,,Clear,330,2013-07-20 17:15:00
12:35 PM,82.9,61.5,48,29.94,10.0,NNW,3.5,-,N/A,,Clear,340,2013-07-20 17:35:00
12:55 PM,83.7,60.6,46,29.94,10.0,NNW,8.1,-,N/A,,Clear,330,2013-07-20 17:55:00
1:15 PM,83.8,60.6,45,29.93,10.0,NNW,6.9,-,N/A,,Clear,340,2013-07-20 18:15:00
1:35 PM,84.0,60.8,45,29.93,10.0,NNW,4.6,-,N/A,,Clear,330,2013-07-20 18:35:00
1:55 PM,83.7,61.5,47,29.93,10.0,NW,4.6,-,N/A,,Clear,320,2013-07-20 18:55:00
2:15 PM,84.0,61.2,46,29.92,10.0,NW,4.6,-,N/A,,Clear,320,2013-07-20 19:15:00
2:35 PM,84.9,62.8,47,29.92,10.0,NNW,10.4,-,N/A,,Clear,330,2013-07-20 19:35:00
2:55 PM,84.0,64.0,51,29.91,10.0,NW,4.6,-,N/A,,Scattered Clouds,320,2013-07-20 19:55:00
3:15 PM,84.4,62.6,48,29.91,10.0,NW,5.8,-,N/A,,Scattered Clouds,320,2013-07-20 20:15:00
3:35 PM,84.2,64.0,51,29.90,10.0,West,5.8,-,N/A,,Clear,260,2013-07-20 20:35:00
3:55 PM,84.6,63.9,50,29.90,10.0,NNW,6.9,-,N/A,,Clear,330,2013-07-20 20:55:00
4:15 PM,84.0,63.7,50,29.90,10.0,NNW,6.9,-,N/A,,Scattered Clouds,340,2013-07-20 21:15:00
4:35 PM,85.1,64.4,50,29.89,10.0,North,3.5,-,N/A,,Clear,10,2013-07-20 21:35:00
4:55 PM,83.8,62.8,49,29.89,10.0,NW,4.6,-,N/A,,Clear,310,2013-07-20 21:55:00
5:15 PM,84.6,65.3,52,29.89,10.0,WNW,5.8,-,N/A,,Scattered Clouds,300,2013-07-20 22:15:00
5:35 PM,84.0,65.1,53,29.89,10.0,NW,5.8,-,N/A,,Scattered Clouds,320,2013-07-20 22:35:00
5:55 PM,83.7,66.4,56,29.88,10.0,West,5.8,-,N/A,,Clear,280,2013-07-20 22:55:00
6:15 PM,83.3,66.0,56,29.89,10.0,WNW,5.8,-,N/A,,Clear,290,2013-07-20 23:15:00
6:35 PM,82.4,65.8,57,29.90,10.0,WNW,4.6,-,N/A,,Clear,300,2013-07-20 23:35:00
6:55 PM,80.8,66.2,61,29.91,10.0,WNW,5.8,-,N/A,,Clear,300,2013-07-20 23:55:00
7:15 PM,80.2,66.9,64,29.91,10.0,West,4.6,-,N/A,,Mostly Cloudy,280,2013-07-21 00:15:00
7:35 PM,79.7,66.7,64,29.91,10.0,West,4.6,-,N/A,,Mostly Cloudy,270,2013-07-21 00:35:00
7:55 PM,78.3,69.1,73,29.92,10.0,West,15.0,-,N/A,,Clear,260,2013-07-21 00:55:00
8:15 PM,75.6,68.4,78,29.93,10.0,WSW,8.1,-,N/A,,Clear,240,2013-07-21 01:15:00
8:35 PM,73.0,65.7,78,29.95,10.0,North,6.9,12.7,N/A,,Scattered Clouds,360,2013-07-21 01:35:00
8:55 PM,72.3,65.3,78,29.96,10.0,East,10.4,-,N/A,,Clear,80,2013-07-21 01:55:00
9:15 PM,71.6,65.3,80,29.96,10.0,East,9.2,-,N/A,,Scattered Clouds,100,2013-07-21 02:15:00
9:35 PM,71.2,65.3,81,29.97,10.0,East,9.2,-,N/A,,Overcast,100,2013-07-21 02:35:00
9:55 PM,71.1,64.8,80,29.96,10.0,East,9.2,-,N/A,,Mostly Cloudy,100,2013-07-21 02:55:00
10:15 PM,70.7,64.6,81,29.97,10.0,ENE,4.6,-,N/A,,Mostly Cloudy,70,2013-07-21 03:15:00
10:35 PM,70.0,64.4,82,29.97,10.0,East,6.9,-,N/A,,Scattered Clouds,90,2013-07-21 03:35:00
10:55 PM,68.9,64.4,86,29.97,10.0,ESE,3.5,-,N/A,,Clear,110,2013-07-21 03:55:00
11:15 PM,68.2,63.7,85,29.96,10.0,ESE,6.9,-,N/A,,Clear,110,2013-07-21 04:15:00
11:35 PM,68.2,63.7,85,29.96,10.0,East,5.8,-,N/A,,Clear,80,2013-07-21 04:35:00
11:55 PM,67.5,63.3,87,29.96,10.0,Calm,Calm,-,N/A,,Clear,0,2013-07-21 04:55:00